sensor_id;sensor_type;location;lat;lon;timestamp;pressure;altitude;pressure_sealevel;temperature;humidity
10978;BME280;5542;48.272;10.794;2024-02-04T00:00:44;96734.97;;;6.22;86.77
10978;BME280;5542;48.272;10.794;2024-02-04T00:03:11;96730.59;;;6.22;86.46
10978;BME280;5542;48.272;10.794;2024-02-04T00:05:37;96724.19;;;6.25;86.66
10978;BME280;5542;48.272;10.794;2024-02-04T00:08:04;96734.31;;;6.28;86.60
10978;BME280;5542;48.272;10.794;2024-02-04T00:10:32;96727.16;;;6.22;86.68
10978;BME280;5542;48.272;10.794;2024-02-04T00:12:59;96715.13;;;6.35;85.75
10978;BME280;5542;48.272;10.794;2024-02-04T00:15:26;96714.97;;;6.37;85.55
10978;BME280;5542;48.272;10.794;2024-02-04T00:17:53;96701.44;;;6.33;85.79
10978;BME280;5542;48.272;10.794;2024-02-04T00:20:19;96693.13;;;6.30;86.26
10978;BME280;5542;48.272;10.794;2024-02-04T00:22:46;96682.25;;;6.41;85.74
10978;BME280;5542;48.272;10.794;2024-02-04T00:25:12;96664.91;;;6.25;85.96
10978;BME280;5542;48.272;10.794;2024-02-04T00:27:41;96663.84;;;6.20;86.11
10978;BME280;5542;48.272;10.794;2024-02-04T00:30:08;96666.63;;;6.18;86.26
10978;BME280;5542;48.272;10.794;2024-02-04T00:32:35;96669.59;;;6.15;86.90
10978;BME280;5542;48.272;10.794;2024-02-04T00:35:02;96677.88;;;6.19;86.25
10978;BME280;5542;48.272;10.794;2024-02-04T00:37:29;96675.09;;;6.20;86.39
10978;BME280;5542;48.272;10.794;2024-02-04T00:39:55;96676.28;;;6.18;86.04
10978;BME280;5542;48.272;10.794;2024-02-04T00:42:22;96663.84;;;6.20;86.10
10978;BME280;5542;48.272;10.794;2024-02-04T00:44:50;96659.22;;;6.07;86.47
10978;BME280;5542;48.272;10.794;2024-02-04T00:47:16;96661.75;;;6.15;85.83
10978;BME280;5542;48.272;10.794;2024-02-04T00:49:43;96666.13;;;6.00;86.26
10978;BME280;5542;48.272;10.794;2024-02-04T00:52:09;96670.44;;;5.93;86.91
10978;BME280;5542;48.272;10.794;2024-02-04T00:54:36;96667.13;;;5.99;86.51
10978;BME280;5542;48.272;10.794;2024-02-04T00:57:03;96661.09;;;5.98;86.80
10978;BME280;5542;48.272;10.794;2024-02-04T00:59:29;96662.75;;;6.14;85.29
10978;BME280;5542;48.272;10.794;2024-02-04T01:01:57;96661.81;;;6.07;85.25
10978;BME280;5542;48.272;10.794;2024-02-04T01:04:24;96663.34;;;6.01;85.31
10978;BME280;5542;48.272;10.794;2024-02-04T01:06:51;96671.13;;;6.09;85.29
10978;BME280;5542;48.272;10.794;2024-02-04T01:09:17;96665.34;;;6.14;84.59
10978;BME280;5542;48.272;10.794;2024-02-04T01:11:44;96662.88;;;5.98;85.06
10978;BME280;5542;48.272;10.794;2024-02-04T01:14:10;96658.13;;;6.01;85.06
10978;BME280;5542;48.272;10.794;2024-02-04T01:16:37;96650.66;;;5.98;84.87
10978;BME280;5542;48.272;10.794;2024-02-04T01:19:05;96645.44;;;5.98;84.85
10978;BME280;5542;48.272;10.794;2024-02-04T01:21:31;96650.84;;;5.88;85.24
10978;BME280;5542;48.272;10.794;2024-02-04T01:23:58;96647.78;;;5.85;85.32
10978;BME280;5542;48.272;10.794;2024-02-04T01:26:25;96651.56;;;5.82;85.37
10978;BME280;5542;48.272;10.794;2024-02-04T01:28:51;96654.69;;;5.78;85.42
10978;BME280;5542;48.272;10.794;2024-02-04T01:31:18;96670.81;;;5.81;85.07
10978;BME280;5542;48.272;10.794;2024-02-04T01:33:44;96665.25;;;5.84;84.61
10978;BME280;5542;48.272;10.794;2024-02-04T01:36:12;96673.00;;;5.70;85.31
10978;BME280;5542;48.272;10.794;2024-02-04T01:38:39;96665.94;;;5.78;85.16
10978;BME280;5542;48.272;10.794;2024-02-04T01:41:05;96659.28;;;5.76;85.01
10978;BME280;5542;48.272;10.794;2024-02-04T01:43:32;96667.44;;;5.73;85.52
10978;BME280;5542;48.272;10.794;2024-02-04T01:45:59;96673.47;;;5.73;85.23
10978;BME280;5542;48.272;10.794;2024-02-04T01:48:25;96673.00;;;5.70;85.30
10978;BME280;5542;48.272;10.794;2024-02-04T01:50:53;96684.81;;;5.65;85.79
10978;BME280;5542;48.272;10.794;2024-02-04T01:53:23;96688.16;;;5.74;85.53
10978;BME280;5542;48.272;10.794;2024-02-04T01:55:50;96676.38;;;5.78;85.33
10978;BME280;5542;48.272;10.794;2024-02-04T01:58:17;96690.75;;;5.74;85.71
10978;BME280;5542;48.272;10.794;2024-02-04T02:00:45;96702.97;;;5.82;85.03
10978;BME280;5542;48.272;10.794;2024-02-04T02:03:12;96705.75;;;5.80;85.29
10978;BME280;5542;48.272;10.794;2024-02-04T02:05:40;96697.09;;;5.80;85.57
10978;BME280;5542;48.272;10.794;2024-02-04T02:08:07;96696.94;;;5.81;84.96
10978;BME280;5542;48.272;10.794;2024-02-04T02:10:35;96671.16;;;5.78;85.35
10978;BME280;5542;48.272;10.794;2024-02-04T02:13:07;96661.78;;;5.92;84.15
10978;BME280;5542;48.272;10.794;2024-02-04T02:15:40;96648.94;;;5.82;84.52
10978;BME280;5542;48.272;10.794;2024-02-04T02:18:12;96638.75;;;5.96;83.97
10978;BME280;5542;48.272;10.794;2024-02-04T02:20:50;96641.56;;;5.86;84.32
10978;BME280;5542;48.272;10.794;2024-02-04T02:23:22;96637.59;;;5.75;84.67
10978;BME280;5542;48.272;10.794;2024-02-04T02:25:58;96644.31;;;5.70;85.28
10978;BME280;5542;48.272;10.794;2024-02-04T02:28:25;96638.69;;;5.58;85.89
10978;BME280;5542;48.272;10.794;2024-02-04T02:30:52;96635.03;;;5.67;85.90
10978;BME280;5542;48.272;10.794;2024-02-04T02:33:18;96642.06;;;5.67;85.89
10978;BME280;5542;48.272;10.794;2024-02-04T02:35:48;96643.28;;;5.56;86.40
10978;BME280;5542;48.272;10.794;2024-02-04T02:38:21;96646.56;;;5.50;86.87
10978;BME280;5542;48.272;10.794;2024-02-04T02:40:53;96649.06;;;5.43;87.47
10978;BME280;5542;48.272;10.794;2024-02-04T02:43:22;96664.59;;;5.59;86.92
10978;BME280;5542;48.272;10.794;2024-02-04T02:45:50;96658.19;;;5.70;86.33
10978;BME280;5542;48.272;10.794;2024-02-04T02:48:17;96652.84;;;5.63;86.62
10978;BME280;5542;48.272;10.794;2024-02-04T02:50:44;96661.31;;;5.65;86.09
10978;BME280;5542;48.272;10.794;2024-02-04T02:53:10;96663.28;;;5.63;86.50
10978;BME280;5542;48.272;10.794;2024-02-04T02:55:37;96669.69;;;5.61;86.90
10978;BME280;5542;48.272;10.794;2024-02-04T02:58:05;96664.56;;;5.68;86.66
10978;BME280;5542;48.272;10.794;2024-02-04T03:00:33;96669.38;;;5.56;87.49
10978;BME280;5542;48.272;10.794;2024-02-04T03:02:59;96669.44;;;5.71;86.91
10978;BME280;5542;48.272;10.794;2024-02-04T03:05:26;96661.25;;;5.51;88.03
10978;BME280;5542;48.272;10.794;2024-02-04T03:07:52;96666.41;;;5.59;87.85
10978;BME280;5542;48.272;10.794;2024-02-04T03:10:19;96671.06;;;5.72;87.42
10978;BME280;5542;48.272;10.794;2024-02-04T03:12:45;96680.31;;;5.74;87.24
10978;BME280;5542;48.272;10.794;2024-02-04T03:15:12;96680.78;;;5.55;88.08
10978;BME280;5542;48.272;10.794;2024-02-04T03:17:42;96675.47;;;5.71;87.41
10978;BME280;5542;48.272;10.794;2024-02-04T03:20:10;96673.56;;;5.65;87.30
10978;BME280;5542;48.272;10.794;2024-02-04T03:22:36;96655.69;;;5.77;86.94
10978;BME280;5542;48.272;10.794;2024-02-04T03:25:03;96651.47;;;5.76;87.11
10978;BME280;5542;48.272;10.794;2024-02-04T03:27:30;96648.56;;;5.71;87.19
10978;BME280;5542;48.272;10.794;2024-02-04T03:29:57;96662.53;;;5.55;88.08
10978;BME280;5542;48.272;10.794;2024-02-04T03:32:23;96645.91;;;5.56;88.04
10978;BME280;5542;48.272;10.794;2024-02-04T03:34:51;96666.31;;;5.52;88.16
10978;BME280;5542;48.272;10.794;2024-02-04T03:37:18;96661.84;;;5.61;87.63
10978;BME280;5542;48.272;10.794;2024-02-04T03:39:44;96656.22;;;5.72;87.28
10978;BME280;5542;48.272;10.794;2024-02-04T03:42:11;96633.75;;;5.63;87.84
10978;BME280;5542;48.272;10.794;2024-02-04T03:44:37;96638.94;;;5.71;86.81
10978;BME280;5542;48.272;10.794;2024-02-04T03:47:04;96642.41;;;5.63;87.15
10978;BME280;5542;48.272;10.794;2024-02-04T03:49:31;96665.50;;;5.52;87.84
10978;BME280;5542;48.272;10.794;2024-02-04T03:51:59;96660.91;;;5.54;87.85
10978;BME280;5542;48.272;10.794;2024-02-04T03:54:25;96645.72;;;5.57;87.42
10978;BME280;5542;48.272;10.794;2024-02-04T03:56:52;96642.13;;;5.58;86.94
10978;BME280;5542;48.272;10.794;2024-02-04T03:59:18;96644.97;;;5.49;87.69
10978;BME280;5542;48.272;10.794;2024-02-04T04:01:47;96641.88;;;5.45;88.15
10978;BME280;5542;48.272;10.794;2024-02-04T04:04:14;96633.94;;;5.61;87.26
10978;BME280;5542;48.272;10.794;2024-02-04T04:06:42;96633.66;;;5.56;86.91
10978;BME280;5542;48.272;10.794;2024-02-04T04:09:10;96624.78;;;5.43;87.33
10978;BME280;5542;48.272;10.794;2024-02-04T04:11:36;96639.25;;;5.45;87.64
10978;BME280;5542;48.272;10.794;2024-02-04T04:14:03;96647.56;;;5.49;87.31
10978;BME280;5542;48.272;10.794;2024-02-04T04:16:29;96651.78;;;5.50;86.85
10978;BME280;5542;48.272;10.794;2024-02-04T04:18:56;96659.28;;;5.53;86.61
10978;BME280;5542;48.272;10.794;2024-02-04T04:21:23;96667.88;;;5.61;86.01
10978;BME280;5542;48.272;10.794;2024-02-04T04:23:50;96658.88;;;5.64;85.98
10978;BME280;5542;48.272;10.794;2024-02-04T04:26:18;96653.84;;;5.62;86.31
10978;BME280;5542;48.272;10.794;2024-02-04T04:28:45;96657.81;;;5.73;85.64
10978;BME280;5542;48.272;10.794;2024-02-04T04:31:11;96655.41;;;5.72;85.87
10978;BME280;5542;48.272;10.794;2024-02-04T04:33:38;96650.94;;;5.80;85.42
10978;BME280;5542;48.272;10.794;2024-02-04T04:36:05;96646.47;;;5.89;84.84
10978;BME280;5542;48.272;10.794;2024-02-04T04:38:32;96648.44;;;5.64;86.08
10978;BME280;5542;48.272;10.794;2024-02-04T04:40:58;96642.81;;;5.75;86.09
10978;BME280;5542;48.272;10.794;2024-02-04T04:43:26;96647.75;;;5.70;86.31
10978;BME280;5542;48.272;10.794;2024-02-04T04:45:53;96637.59;;;5.52;87.38
10978;BME280;5542;48.272;10.794;2024-02-04T04:48:19;96646.94;;;5.47;88.19
10978;BME280;5542;48.272;10.794;2024-02-04T04:50:46;96637.41;;;5.54;87.83
10978;BME280;5542;48.272;10.794;2024-02-04T04:53:13;96633.59;;;5.42;88.20
10978;BME280;5542;48.272;10.794;2024-02-04T04:55:39;96637.41;;;5.54;87.99
10978;BME280;5542;48.272;10.794;2024-02-04T04:58:06;96635.00;;;5.52;87.77
10978;BME280;5542;48.272;10.794;2024-02-04T05:00:36;96637.13;;;5.72;87.24
10978;BME280;5542;48.272;10.794;2024-02-04T05:03:03;96632.16;;;5.62;87.46
10978;BME280;5542;48.272;10.794;2024-02-04T05:05:30;96632.56;;;5.51;88.11
10978;BME280;5542;48.272;10.794;2024-02-04T05:07:57;96636.09;;;5.58;88.19
10978;BME280;5542;48.272;10.794;2024-02-04T05:10:23;96640.53;;;5.49;88.50
10978;BME280;5542;48.272;10.794;2024-02-04T05:12:50;96641.13;;;5.59;88.97
10978;BME280;5542;48.272;10.794;2024-02-04T05:15:17;96643.00;;;5.51;89.59
10978;BME280;5542;48.272;10.794;2024-02-04T05:17:45;96642.06;;;5.44;90.79
10978;BME280;5542;48.272;10.794;2024-02-04T05:20:11;96646.00;;;5.39;91.22
10978;BME280;5542;48.272;10.794;2024-02-04T05:22:38;96646.19;;;5.38;91.75
10978;BME280;5542;48.272;10.794;2024-02-04T05:25:05;96632.00;;;5.55;91.78
10978;BME280;5542;48.272;10.794;2024-02-04T05:27:32;96620.47;;;5.50;92.14
10978;BME280;5542;48.272;10.794;2024-02-04T05:29:58;96608.09;;;5.52;92.58
10978;BME280;5542;48.272;10.794;2024-02-04T05:32:25;96620.44;;;5.35;93.37
10978;BME280;5542;48.272;10.794;2024-02-04T05:34:53;96604.53;;;5.45;93.50
10978;BME280;5542;48.272;10.794;2024-02-04T05:37:19;96608.91;;;5.29;93.97
10978;BME280;5542;48.272;10.794;2024-02-04T05:39:47;96620.59;;;5.33;93.64
10978;BME280;5542;48.272;10.794;2024-02-04T05:42:13;96621.75;;;5.31;93.86
10978;BME280;5542;48.272;10.794;2024-02-04T05:44:40;96613.34;;;5.21;94.18
10978;BME280;5542;48.272;10.794;2024-02-04T05:47:07;96610.03;;;5.27;94.21
10978;BME280;5542;48.272;10.794;2024-02-04T05:49:33;96609.28;;;5.41;93.10
10978;BME280;5542;48.272;10.794;2024-02-04T05:52:01;96619.03;;;5.24;93.67
10978;BME280;5542;48.272;10.794;2024-02-04T05:54:28;96627.66;;;5.25;93.35
10978;BME280;5542;48.272;10.794;2024-02-04T05:56:55;96619.38;;;5.21;93.92
10978;BME280;5542;48.272;10.794;2024-02-04T05:59:21;96614.81;;;5.23;93.79
10978;BME280;5542;48.272;10.794;2024-02-04T06:01:48;96624.72;;;5.28;93.53
10978;BME280;5542;48.272;10.794;2024-02-04T06:04:14;96625.75;;;5.19;93.44
10978;BME280;5542;48.272;10.794;2024-02-04T06:06:41;96629.53;;;5.08;94.17
10978;BME280;5542;48.272;10.794;2024-02-04T06:09:09;96630.19;;;5.10;94.02
10978;BME280;5542;48.272;10.794;2024-02-04T06:11:35;96633.56;;;5.19;93.51
10978;BME280;5542;48.272;10.794;2024-02-04T06:14:02;96635.72;;;5.15;93.46
10978;BME280;5542;48.272;10.794;2024-02-04T06:16:29;96635.81;;;5.22;93.05
10978;BME280;5542;48.272;10.794;2024-02-04T06:18:55;96633.81;;;5.09;94.06
10978;BME280;5542;48.272;10.794;2024-02-04T06:21:23;96637.78;;;4.88;94.88
10978;BME280;5542;48.272;10.794;2024-02-04T06:23:50;96651.59;;;4.97;95.09
10978;BME280;5542;48.272;10.794;2024-02-04T06:26:18;96652.56;;;5.04;94.91
10978;BME280;5542;48.272;10.794;2024-02-04T06:28:44;96652.56;;;5.04;94.51
10978;BME280;5542;48.272;10.794;2024-02-04T06:31:13;96663.44;;;5.08;94.23
10978;BME280;5542;48.272;10.794;2024-02-04T06:33:40;96670.06;;;4.87;95.53
10978;BME280;5542;48.272;10.794;2024-02-04T06:36:08;96664.69;;;4.89;96.05
10978;BME280;5542;48.272;10.794;2024-02-04T06:38:35;96673.03;;;4.84;96.68
10978;BME280;5542;48.272;10.794;2024-02-04T06:41:02;96670.88;;;4.88;96.44
10978;BME280;5542;48.272;10.794;2024-02-04T06:43:30;96673.63;;;4.95;96.64
10978;BME280;5542;48.272;10.794;2024-02-04T06:45:57;96669.91;;;4.89;96.90
10978;BME280;5542;48.272;10.794;2024-02-04T06:48:23;96660.41;;;4.96;96.84
10978;BME280;5542;48.272;10.794;2024-02-04T06:50:50;96660.91;;;5.00;96.19
10978;BME280;5542;48.272;10.794;2024-02-04T06:53:17;96660.38;;;5.04;95.90
10978;BME280;5542;48.272;10.794;2024-02-04T06:55:43;96641.53;;;4.94;95.60
10978;BME280;5542;48.272;10.794;2024-02-04T06:58:10;96647.47;;;4.80;96.88
10978;BME280;5542;48.272;10.794;2024-02-04T07:00:38;96645.59;;;4.88;97.16
10978;BME280;5542;48.272;10.794;2024-02-04T07:03:04;96647.56;;;4.95;96.46
10978;BME280;5542;48.272;10.794;2024-02-04T07:05:31;96652.09;;;5.01;95.61
10978;BME280;5542;48.272;10.794;2024-02-04T07:07:59;96643.31;;;4.94;95.75
10978;BME280;5542;48.272;10.794;2024-02-04T07:10:25;96646.53;;;5.04;95.16
10978;BME280;5542;48.272;10.794;2024-02-04T07:12:52;96654.88;;;4.99;95.30
10978;BME280;5542;48.272;10.794;2024-02-04T07:15:19;96644.88;;;5.03;94.54
10978;BME280;5542;48.272;10.794;2024-02-04T07:17:46;96652.09;;;5.01;95.15
10978;BME280;5542;48.272;10.794;2024-02-04T07:20:13;96655.50;;;5.01;94.89
10978;BME280;5542;48.272;10.794;2024-02-04T07:22:40;96658.56;;;5.13;94.06
10978;BME280;5542;48.272;10.794;2024-02-04T07:25:07;96657.94;;;5.03;94.02
10978;BME280;5542;48.272;10.794;2024-02-04T07:27:34;96669.63;;;5.15;94.12
10978;BME280;5542;48.272;10.794;2024-02-04T07:30:01;96676.63;;;5.14;93.73
10978;BME280;5542;48.272;10.794;2024-02-04T07:32:31;96673.50;;;5.19;93.59
10978;BME280;5542;48.272;10.794;2024-02-04T07:35:01;96677.72;;;5.20;93.39
10978;BME280;5542;48.272;10.794;2024-02-04T07:37:27;96678.84;;;5.26;93.15
10978;BME280;5542;48.272;10.794;2024-02-04T07:39:54;96663.84;;;5.28;92.24
10978;BME280;5542;48.272;10.794;2024-02-04T07:42:20;96671.28;;;5.39;92.16
10978;BME280;5542;48.272;10.794;2024-02-04T07:44:47;96665.03;;;5.17;92.43
10978;BME280;5542;48.272;10.794;2024-02-04T07:47:14;96662.09;;;5.20;92.32
10978;BME280;5542;48.272;10.794;2024-02-04T07:49:41;96656.13;;;5.34;92.69
10978;BME280;5542;48.272;10.794;2024-02-04T07:52:09;96659.97;;;5.70;90.82
10978;BME280;5542;48.272;10.794;2024-02-04T07:54:35;96650.66;;;5.75;90.06
10978;BME280;5542;48.272;10.794;2024-02-04T07:57:02;96651.91;;;5.79;89.11
10978;BME280;5542;48.272;10.794;2024-02-04T07:59:29;96650.28;;;5.78;88.80
10978;BME280;5542;48.272;10.794;2024-02-04T08:01:56;96654.91;;;5.91;88.38
10978;BME280;5542;48.272;10.794;2024-02-04T08:04:22;96654.97;;;5.83;87.95
10978;BME280;5542;48.272;10.794;2024-02-04T08:06:49;96646.69;;;5.79;88.26
10978;BME280;5542;48.272;10.794;2024-02-04T08:09:18;96657.59;;;5.60;88.95
10978;BME280;5542;48.272;10.794;2024-02-04T08:11:45;96656.09;;;5.65;90.00
10978;BME280;5542;48.272;10.794;2024-02-04T08:14:12;96656.78;;;5.82;89.12
10978;BME280;5542;48.272;10.794;2024-02-04T08:16:39;96664.41;;;5.84;88.77
10978;BME280;5542;48.272;10.794;2024-02-04T08:19:07;96663.47;;;6.08;87.15
10978;BME280;5542;48.272;10.794;2024-02-04T08:21:34;96664.81;;;6.04;87.47
10978;BME280;5542;48.272;10.794;2024-02-04T08:24:01;96653.13;;;6.29;86.35
10978;BME280;5542;48.272;10.794;2024-02-04T08:26:29;96655.81;;;6.21;86.60
10978;BME280;5542;48.272;10.794;2024-02-04T08:28:56;96648.72;;;6.45;85.14
10978;BME280;5542;48.272;10.794;2024-02-04T08:31:22;96649.63;;;6.37;85.00
10978;BME280;5542;48.272;10.794;2024-02-04T08:33:49;96642.41;;;6.39;86.17
10978;BME280;5542;48.272;10.794;2024-02-04T08:36:16;96645.09;;;6.46;85.29
10978;BME280;5542;48.272;10.794;2024-02-04T08:38:43;96629.81;;;6.57;84.04
10978;BME280;5542;48.272;10.794;2024-02-04T08:41:09;96632.41;;;6.43;85.67
10978;BME280;5542;48.272;10.794;2024-02-04T08:43:37;96633.13;;;6.81;83.58
10978;BME280;5542;48.272;10.794;2024-02-04T08:46:05;96638.63;;;6.86;82.56
10978;BME280;5542;48.272;10.794;2024-02-04T08:48:31;96624.72;;;7.00;82.87
10978;BME280;5542;48.272;10.794;2024-02-04T08:50:58;96628.28;;;7.14;81.75
10978;BME280;5542;48.272;10.794;2024-02-04T08:53:25;96626.56;;;6.70;82.99
10978;BME280;5542;48.272;10.794;2024-02-04T08:55:51;96637.44;;;6.74;84.21
10978;BME280;5542;48.272;10.794;2024-02-04T08:58:18;96639.25;;;6.73;84.45
10978;BME280;5542;48.272;10.794;2024-02-04T09:00:46;96641.97;;;6.65;84.13
10978;BME280;5542;48.272;10.794;2024-02-04T09:03:12;96642.34;;;6.62;83.95
10978;BME280;5542;48.272;10.794;2024-02-04T09:05:39;96638.00;;;6.54;84.62
10978;BME280;5542;48.272;10.794;2024-02-04T09:08:06;96637.66;;;6.43;85.46
10978;BME280;5542;48.272;10.794;2024-02-04T09:10:32;96638.53;;;6.50;84.66
10978;BME280;5542;48.272;10.794;2024-02-04T09:12:59;96651.25;;;6.53;84.88
10978;BME280;5542;48.272;10.794;2024-02-04T09:15:26;96640.88;;;6.45;84.58
10978;BME280;5542;48.272;10.794;2024-02-04T09:17:53;96641.69;;;6.45;85.01
10978;BME280;5542;48.272;10.794;2024-02-04T09:20:20;96638.81;;;6.55;85.41
10978;BME280;5542;48.272;10.794;2024-02-04T09:22:47;96628.34;;;6.55;84.83
10978;BME280;5542;48.272;10.794;2024-02-04T09:25:14;96635.84;;;6.58;84.71
10978;BME280;5542;48.272;10.794;2024-02-04T09:27:41;96635.75;;;6.51;84.83
10978;BME280;5542;48.272;10.794;2024-02-04T09:30:08;96630.00;;;6.56;85.53
10978;BME280;5542;48.272;10.794;2024-02-04T09:32:34;96634.03;;;6.73;84.81
10978;BME280;5542;48.272;10.794;2024-02-04T09:35:03;96624.09;;;6.83;83.33
10978;BME280;5542;48.272;10.794;2024-02-04T09:37:30;96617.19;;;6.76;83.37
10978;BME280;5542;48.272;10.794;2024-02-04T09:39:56;96618.59;;;6.78;83.85
10978;BME280;5542;48.272;10.794;2024-02-04T09:42:23;96629.81;;;6.57;84.73
10978;BME280;5542;48.272;10.794;2024-02-04T09:44:50;96635.31;;;6.48;85.79
10978;BME280;5542;48.272;10.794;2024-02-04T09:47:17;96646.03;;;6.53;85.50
10978;BME280;5542;48.272;10.794;2024-02-04T09:49:44;96647.28;;;6.42;86.18
10978;BME280;5542;48.272;10.794;2024-02-04T09:52:13;96647.56;;;6.47;85.47
10978;BME280;5542;48.272;10.794;2024-02-04T09:54:44;96641.53;;;6.32;86.10
10978;BME280;5542;48.272;10.794;2024-02-04T09:57:12;96640.06;;;6.29;86.67
10978;BME280;5542;48.272;10.794;2024-02-04T09:59:39;96642.94;;;6.20;86.75
10978;BME280;5542;48.272;10.794;2024-02-04T10:02:07;96644.28;;;6.30;86.65
10978;BME280;5542;48.272;10.794;2024-02-04T10:04:33;96651.13;;;6.31;86.12
10978;BME280;5542;48.272;10.794;2024-02-04T10:07:00;96650.06;;;6.40;85.81
10978;BME280;5542;48.272;10.794;2024-02-04T10:09:29;96656.13;;;6.41;86.30
10978;BME280;5542;48.272;10.794;2024-02-04T10:11:56;96662.63;;;6.60;85.48
10978;BME280;5542;48.272;10.794;2024-02-04T10:14:23;96675.78;;;6.66;84.74
10978;BME280;5542;48.272;10.794;2024-02-04T10:16:50;96675.03;;;6.87;84.25
10978;BME280;5542;48.272;10.794;2024-02-04T10:19:17;96672.16;;;6.82;84.23
10978;BME280;5542;48.272;10.794;2024-02-04T10:21:44;96665.03;;;6.91;84.05
10978;BME280;5542;48.272;10.794;2024-02-04T10:24:10;96661.34;;;6.85;84.75
10978;BME280;5542;48.272;10.794;2024-02-04T10:26:38;96646.28;;;6.87;84.42
10978;BME280;5542;48.272;10.794;2024-02-04T10:29:08;96641.66;;;7.04;82.71
10978;BME280;5542;48.272;10.794;2024-02-04T10:31:35;96640.03;;;7.03;83.00
10978;BME280;5542;48.272;10.794;2024-02-04T10:34:02;96648.16;;;7.08;82.67
10978;BME280;5542;48.272;10.794;2024-02-04T10:36:30;96650.13;;;7.06;83.34
10978;BME280;5542;48.272;10.794;2024-02-04T10:38:57;96646.97;;;7.11;82.93
10978;BME280;5542;48.272;10.794;2024-02-04T10:41:25;96637.84;;;7.07;83.91
10978;BME280;5542;48.272;10.794;2024-02-04T10:43:54;96637.00;;;7.21;82.18
10978;BME280;5542;48.272;10.794;2024-02-04T10:46:22;96640.72;;;7.12;82.97
10978;BME280;5542;48.272;10.794;2024-02-04T10:48:55;96641.28;;;7.07;82.85
10978;BME280;5542;48.272;10.794;2024-02-04T10:51:24;96641.31;;;7.29;82.63
10978;BME280;5542;48.272;10.794;2024-02-04T10:53:53;96634.78;;;7.39;81.39
10978;BME280;5542;48.272;10.794;2024-02-04T10:56:32;96643.22;;;7.56;81.56
10978;BME280;5542;48.272;10.794;2024-02-04T10:59:05;96647.06;;;7.39;81.20
10978;BME280;5542;48.272;10.794;2024-02-04T11:01:33;96639.31;;;7.46;80.69
10978;BME280;5542;48.272;10.794;2024-02-04T11:04:00;96618.84;;;7.34;80.74
10978;BME280;5542;48.272;10.794;2024-02-04T11:06:29;96610.19;;;7.34;80.57
10978;BME280;5542;48.272;10.794;2024-02-04T11:08:56;96606.41;;;7.36;81.44
10978;BME280;5542;48.272;10.794;2024-02-04T11:11:25;96578.72;;;7.27;81.33
10978;BME280;5542;48.272;10.794;2024-02-04T11:13:55;96570.63;;;7.22;81.98
10978;BME280;5542;48.272;10.794;2024-02-04T11:16:31;96571.44;;;7.23;82.58
10978;BME280;5542;48.272;10.794;2024-02-04T11:19:15;96559.09;;;7.38;82.39
10978;BME280;5542;48.272;10.794;2024-02-04T11:25:01;96573.78;;;7.60;80.27
10978;BME280;5542;48.272;10.794;2024-02-04T11:27:30;96578.47;;;7.65;78.93
10978;BME280;5542;48.272;10.794;2024-02-04T11:29:57;96568.13;;;7.57;79.54
10978;BME280;5542;48.272;10.794;2024-02-04T11:32:25;96570.28;;;7.53;79.52
10978;BME280;5542;48.272;10.794;2024-02-04T11:34:52;96572.22;;;7.66;79.99
10978;BME280;5542;48.272;10.794;2024-02-04T11:37:20;96565.78;;;7.68;79.81
10978;BME280;5542;48.272;10.794;2024-02-04T11:39:50;96557.47;;;7.86;79.46
10978;BME280;5542;48.272;10.794;2024-02-04T11:42:17;96565.00;;;7.96;78.58
10978;BME280;5542;48.272;10.794;2024-02-04T11:44:46;96565.97;;;7.88;78.62
10978;BME280;5542;48.272;10.794;2024-02-04T11:47:22;96554.94;;;8.00;78.00
10978;BME280;5542;48.272;10.794;2024-02-04T11:49:54;96549.00;;;7.84;78.43
10978;BME280;5542;48.272;10.794;2024-02-04T11:52:21;96548.00;;;7.85;79.19
10978;BME280;5542;48.272;10.794;2024-02-04T11:54:48;96538.44;;;7.99;78.17
10978;BME280;5542;48.272;10.794;2024-02-04T11:57:15;96542.75;;;8.13;77.36
10978;BME280;5542;48.272;10.794;2024-02-04T11:59:42;96537.88;;;8.10;77.40
10978;BME280;5542;48.272;10.794;2024-02-04T12:02:10;96534.06;;;8.13;77.67
10978;BME280;5542;48.272;10.794;2024-02-04T12:04:37;96530.44;;;8.14;77.88
10978;BME280;5542;48.272;10.794;2024-02-04T12:07:07;96537.06;;;8.10;77.78
10978;BME280;5542;48.272;10.794;2024-02-04T12:09:34;96538.97;;;8.23;77.76
10978;BME280;5542;48.272;10.794;2024-02-04T12:12:02;96536.00;;;8.32;77.45
10978;BME280;5542;48.272;10.794;2024-02-04T12:14:29;96521.19;;;8.53;76.51
10978;BME280;5542;48.272;10.794;2024-02-04T12:16:56;96513.53;;;8.51;76.46
10978;BME280;5542;48.272;10.794;2024-02-04T12:19:23;96512.16;;;8.62;76.86
10978;BME280;5542;48.272;10.794;2024-02-04T12:21:49;96498.50;;;8.80;75.60
10978;BME280;5542;48.272;10.794;2024-02-04T12:24:18;96504.16;;;8.83;75.73
10978;BME280;5542;48.272;10.794;2024-02-04T12:26:44;96489.03;;;8.92;75.81
10978;BME280;5542;48.272;10.794;2024-02-04T12:29:13;96482.59;;;9.01;74.30
10978;BME280;5542;48.272;10.794;2024-02-04T12:31:40;96474.94;;;8.93;73.91
10978;BME280;5542;48.272;10.794;2024-02-04T12:34:08;96458.59;;;8.97;73.93
10978;BME280;5542;48.272;10.794;2024-02-04T12:36:34;96472.13;;;9.14;73.77
10978;BME280;5542;48.272;10.794;2024-02-04T12:39:01;96498.16;;;9.22;73.08
10978;BME280;5542;48.272;10.794;2024-02-04T12:41:30;96503.22;;;9.24;73.32
10978;BME280;5542;48.272;10.794;2024-02-04T12:43:57;96519.38;;;9.28;72.98
10978;BME280;5542;48.272;10.794;2024-02-04T12:46:24;96506.66;;;9.44;72.32
10978;BME280;5542;48.272;10.794;2024-02-04T12:48:51;96501.59;;;9.43;71.74
10978;BME280;5542;48.272;10.794;2024-02-04T12:51:25;96499.59;;;9.38;71.62
10978;BME280;5542;48.272;10.794;2024-02-04T12:54:04;96489.66;;;9.20;72.48
10978;BME280;5542;48.272;10.794;2024-02-04T12:56:41;96491.09;;;9.30;72.83
10978;BME280;5542;48.272;10.794;2024-02-04T12:59:08;96483.41;;;9.15;73.13
10978;BME280;5542;48.272;10.794;2024-02-04T13:01:36;96476.34;;;9.29;72.41
10978;BME280;5542;48.272;10.794;2024-02-04T13:04:03;96468.69;;;9.40;72.49
10978;BME280;5542;48.272;10.794;2024-02-04T13:06:30;96455.16;;;9.43;71.60
10978;BME280;5542;48.272;10.794;2024-02-04T13:08:57;96456.38;;;9.28;72.16
10978;BME280;5542;48.272;10.794;2024-02-04T13:11:24;96474.16;;;9.32;73.27
10978;BME280;5542;48.272;10.794;2024-02-04T13:13:52;96459.22;;;9.46;72.70